createdAt,value
2023-11-17T00:01:45.799Z,6.80
2023-11-17T00:04:15.573Z,6.80
2023-11-17T00:06:44.778Z,6.70
2023-11-17T00:09:12.176Z,6.70
2023-11-17T00:11:39.153Z,6.70
2023-11-17T00:14:07.423Z,6.70
2023-11-17T00:16:34.539Z,6.70
2023-11-17T00:19:02.432Z,6.70
2023-11-17T00:21:29.462Z,6.70
2023-11-17T00:23:57.735Z,6.70
2023-11-17T00:26:26.497Z,6.70
2023-11-17T00:28:57.074Z,6.60
2023-11-17T00:31:24.004Z,6.60
2023-11-17T00:33:51.014Z,6.50
2023-11-17T00:36:18.009Z,6.50
2023-11-17T00:38:45.085Z,6.60
2023-11-17T00:41:21.802Z,6.50
2023-11-17T00:43:55.521Z,6.40
2023-11-17T00:46:22.987Z,6.40
2023-11-17T00:48:50.077Z,6.40
2023-11-17T00:51:19.918Z,6.40
2023-11-17T00:53:46.986Z,6.40
2023-11-17T00:56:15.309Z,6.30
2023-11-17T00:58:42.813Z,6.30
2023-11-17T01:01:10.492Z,6.30
2023-11-17T01:03:37.718Z,6.20
2023-11-17T01:06:05.202Z,6.20
2023-11-17T01:08:32.152Z,6.30
2023-11-17T01:10:59.051Z,6.20
2023-11-17T01:13:27.501Z,6.10
2023-11-17T01:15:54.439Z,6.00
2023-11-17T01:18:21.511Z,5.90
2023-11-17T01:20:48.504Z,5.90
2023-11-17T01:23:15.434Z,5.90
2023-11-17T01:25:42.899Z,5.80
2023-11-17T01:28:10.244Z,5.70
2023-11-17T01:30:38.614Z,5.70
2023-11-17T01:33:07.135Z,5.70
2023-11-17T01:35:34.623Z,5.70
2023-11-17T01:38:02.675Z,5.80
2023-11-17T01:40:32.073Z,5.80
2023-11-17T01:43:06.853Z,5.80
2023-11-17T01:45:34.648Z,5.80
2023-11-17T01:48:03.177Z,5.90
2023-11-17T01:50:30.655Z,5.90
2023-11-17T01:52:57.598Z,5.90
2023-11-17T01:55:25.705Z,5.90
2023-11-17T01:57:54.021Z,5.90
2023-11-17T02:00:20.944Z,5.90
2023-11-17T02:02:49.684Z,5.90
2023-11-17T02:05:22.087Z,5.90
2023-11-17T02:08:06.475Z,5.90
2023-11-17T02:10:41.338Z,5.90
2023-11-17T02:13:17.244Z,6.00
2023-11-17T02:15:45.159Z,6.00
2023-11-17T02:18:16.898Z,5.90
2023-11-17T02:20:46.153Z,6.00
2023-11-17T02:23:17.049Z,5.90
2023-11-17T02:25:56.425Z,6.00
2023-11-17T02:28:43.114Z,6.00
2023-11-17T02:31:20.010Z,6.00
2023-11-17T02:33:50.410Z,6.00
2023-11-17T02:36:20.873Z,5.90
2023-11-17T02:38:52.645Z,5.90
2023-11-17T02:41:30.433Z,5.90
2023-11-17T02:43:58.851Z,5.90
2023-11-17T02:46:32.356Z,5.80
2023-11-17T02:49:01.349Z,5.90
2023-11-17T02:51:34.069Z,5.80
2023-11-17T02:54:09.355Z,5.80
2023-11-17T02:56:39.613Z,5.80
2023-11-17T02:59:08.448Z,5.90
2023-11-17T03:01:39.791Z,5.90
2023-11-17T03:04:14.904Z,5.90
2023-11-17T03:06:46.784Z,5.90
2023-11-17T03:09:14.878Z,5.90
2023-11-17T03:11:42.804Z,5.90
2023-11-17T03:14:10.338Z,5.90
2023-11-17T03:16:38.798Z,5.80
2023-11-17T03:19:11.478Z,5.80
2023-11-17T03:21:42.235Z,5.80
2023-11-17T03:24:15.999Z,5.80
2023-11-17T03:26:44.521Z,5.80
2023-11-17T03:29:14.948Z,5.90
2023-11-17T03:31:49.668Z,5.80
2023-11-17T03:34:19.038Z,5.80
2023-11-17T03:36:46.424Z,5.80
2023-11-17T03:39:13.570Z,5.70
2023-11-17T03:41:41.371Z,5.80
2023-11-17T03:44:08.845Z,5.70
2023-11-17T03:46:36.655Z,5.70
2023-11-17T03:49:05.134Z,5.80
2023-11-17T03:51:32.108Z,5.80
2023-11-17T03:53:59.068Z,5.70
2023-11-17T03:56:26.151Z,5.70
2023-11-17T03:58:53.081Z,5.70
2023-11-17T04:01:20.090Z,5.70
2023-11-17T04:03:48.013Z,5.60
2023-11-17T04:06:16.421Z,5.70
2023-11-17T04:08:43.389Z,5.70
2023-11-17T04:11:14.662Z,5.70
2023-11-17T04:13:43.179Z,5.70
2023-11-17T04:16:11.706Z,5.70
2023-11-17T04:18:41.021Z,5.60
2023-11-17T04:21:08.393Z,5.70
2023-11-17T04:23:36.831Z,5.70
2023-11-17T04:26:04.286Z,5.60
2023-11-17T04:28:31.398Z,5.60
2023-11-17T04:30:58.397Z,5.50
2023-11-17T04:33:25.499Z,5.50
2023-11-17T04:35:52.522Z,5.50
2023-11-17T04:38:19.728Z,5.50
2023-11-17T04:40:48.456Z,5.50
2023-11-17T04:43:15.502Z,5.50
2023-11-17T04:45:44.395Z,5.50
2023-11-17T04:48:12.539Z,5.50
2023-11-17T04:50:40.985Z,5.50
2023-11-17T04:53:08.041Z,5.50
2023-11-17T04:55:35.351Z,5.50
2023-11-17T04:58:05.099Z,5.40
2023-11-17T05:00:34.698Z,5.40
2023-11-17T05:03:01.746Z,5.50
2023-11-17T05:05:28.912Z,5.50
2023-11-17T05:07:57.530Z,5.40
2023-11-17T05:10:24.575Z,5.50
2023-11-17T05:12:52.968Z,5.50
2023-11-17T05:15:25.542Z,5.50
2023-11-17T05:17:52.518Z,5.50
2023-11-17T05:20:20.939Z,5.40
2023-11-17T05:22:49.005Z,5.40
2023-11-17T05:25:17.243Z,5.50
2023-11-17T05:27:47.308Z,5.40
2023-11-17T05:30:15.643Z,5.30
2023-11-17T05:32:46.207Z,5.30
2023-11-17T05:35:13.296Z,5.30
2023-11-17T05:37:40.267Z,5.40
2023-11-17T05:40:08.666Z,5.30
2023-11-17T05:42:36.025Z,5.30
2023-11-17T05:45:03.202Z,5.30
2023-11-17T05:47:30.431Z,5.30
2023-11-17T05:49:58.677Z,5.30
2023-11-17T05:52:25.771Z,5.30
2023-11-17T05:54:52.787Z,5.30
2023-11-17T05:57:20.936Z,5.40
2023-11-17T05:59:53.833Z,5.40
2023-11-17T06:02:22.438Z,5.40
2023-11-17T06:04:49.763Z,5.40
2023-11-17T06:07:18.223Z,5.40
2023-11-17T06:09:45.241Z,5.40
2023-11-17T06:12:13.410Z,5.30
2023-11-17T06:14:42.242Z,5.30
2023-11-17T06:17:13.157Z,5.20
2023-11-17T06:19:40.660Z,5.20
2023-11-17T06:22:12.211Z,5.20
2023-11-17T06:24:40.601Z,5.20
2023-11-17T06:27:11.522Z,5.20
2023-11-17T06:29:38.517Z,5.10
2023-11-17T06:32:06.077Z,5.10
2023-11-17T06:34:33.068Z,5.20
2023-11-17T06:37:00.000Z,5.20
2023-11-17T06:39:30.528Z,5.10
2023-11-17T06:41:58.861Z,5.10
2023-11-17T06:44:26.419Z,5.20
2023-11-17T06:46:53.915Z,5.20
2023-11-17T06:49:23.580Z,5.20
2023-11-17T06:51:57.090Z,5.20
2023-11-17T06:54:25.232Z,5.30
2023-11-17T06:56:52.970Z,5.20
2023-11-17T06:59:21.860Z,5.20
2023-11-17T07:01:52.138Z,5.30
2023-11-17T07:04:20.524Z,5.30
2023-11-17T07:06:49.293Z,5.30
2023-11-17T07:09:24.205Z,5.30
2023-11-17T07:11:55.636Z,5.20
2023-11-17T07:14:23.884Z,5.30
2023-11-17T07:16:51.258Z,5.30
2023-11-17T07:19:19.438Z,5.30
2023-11-17T07:21:47.746Z,5.20
2023-11-17T07:24:16.105Z,5.30
2023-11-17T07:26:45.287Z,5.30
2023-11-17T07:29:14.209Z,5.30
2023-11-17T07:31:45.298Z,5.30
2023-11-17T07:34:19.791Z,5.30
2023-11-17T07:36:48.975Z,5.20
2023-11-17T07:39:20.343Z,5.20
2023-11-17T07:41:48.174Z,5.30
2023-11-17T07:44:21.668Z,5.30
2023-11-17T07:46:50.295Z,5.30
2023-11-17T07:49:20.711Z,5.30
2023-11-17T07:51:49.330Z,5.30
2023-11-17T07:54:18.057Z,5.30
2023-11-17T07:56:46.672Z,5.40
2023-11-17T07:59:13.831Z,5.40
2023-11-17T08:01:41.342Z,5.40
2023-11-17T08:04:10.243Z,5.40
2023-11-17T08:06:37.902Z,5.40
2023-11-17T08:09:06.001Z,5.40
2023-11-17T08:11:32.915Z,5.40
2023-11-17T08:13:59.889Z,5.50
2023-11-17T08:16:27.956Z,5.50
2023-11-17T08:18:56.754Z,5.50
2023-11-17T08:21:26.534Z,5.50
2023-11-17T08:23:53.550Z,5.50
2023-11-17T08:26:20.538Z,5.50
2023-11-17T08:28:47.631Z,5.50
2023-11-17T08:31:16.177Z,5.60
2023-11-17T08:33:44.163Z,5.60
2023-11-17T08:36:12.040Z,5.70
2023-11-17T08:38:43.477Z,5.70
2023-11-17T08:41:13.984Z,5.80
2023-11-17T08:43:41.336Z,5.80
2023-11-17T08:46:08.768Z,5.80
2023-11-17T08:48:36.692Z,5.80
2023-11-17T08:51:04.301Z,5.80
2023-11-17T08:53:31.540Z,5.80
2023-11-17T08:56:03.046Z,5.90
2023-11-17T08:58:30.125Z,5.90
2023-11-17T09:00:58.985Z,5.90
2023-11-17T09:03:26.237Z,5.90
2023-11-17T09:05:53.757Z,5.90
2023-11-17T09:08:21.934Z,6.00
2023-11-17T09:10:49.366Z,6.10
2023-11-17T09:13:18.102Z,6.20
2023-11-17T09:15:46.626Z,6.30
2023-11-17T09:18:15.107Z,6.40
2023-11-17T09:20:43.015Z,6.40
2023-11-17T09:23:10.818Z,6.30
2023-11-17T09:25:37.811Z,6.30
2023-11-17T09:28:04.964Z,6.30
2023-11-17T09:30:33.456Z,6.40
2023-11-17T09:33:04.043Z,6.40
2023-11-17T09:35:33.382Z,6.60
2023-11-17T09:38:01.959Z,6.60
2023-11-17T09:40:30.573Z,6.50
2023-11-17T09:42:58.860Z,6.60
2023-11-17T09:45:27.361Z,6.50
2023-11-17T09:47:57.455Z,6.60
2023-11-17T09:50:28.391Z,6.70
2023-11-17T09:52:56.312Z,6.80
2023-11-17T09:55:24.173Z,6.70
2023-11-17T09:57:56.076Z,6.70
2023-11-17T10:00:26.996Z,6.80
2023-11-17T10:02:56.347Z,6.80
2023-11-17T10:05:24.637Z,6.90
2023-11-17T10:07:55.045Z,7.00
2023-11-17T10:10:23.088Z,7.00
2023-11-17T10:12:52.186Z,6.90
2023-11-17T10:15:25.688Z,6.70
2023-11-17T10:17:58.139Z,6.60
2023-11-17T10:20:26.624Z,6.60
2023-11-17T10:22:55.504Z,6.60
2023-11-17T10:25:23.289Z,6.60
2023-11-17T10:27:52.771Z,6.50
2023-11-17T10:30:26.448Z,6.60
2023-11-17T10:33:12.623Z,6.60
2023-11-17T10:35:44.293Z,6.60
2023-11-17T10:38:16.524Z,6.70
2023-11-17T10:40:43.507Z,6.60
2023-11-17T10:43:13.003Z,6.70
2023-11-17T10:45:42.380Z,6.70
2023-11-17T10:48:14.181Z,6.70
2023-11-17T10:50:43.408Z,6.70
2023-11-17T10:53:21.745Z,6.80
2023-11-17T10:55:50.308Z,6.80
2023-11-17T10:58:17.614Z,6.90
2023-11-17T11:00:46.205Z,6.90
2023-11-17T11:03:15.592Z,6.70
2023-11-17T11:05:43.750Z,6.70
2023-11-17T11:08:15.207Z,6.70
2023-11-17T11:10:50.428Z,6.70
2023-11-17T11:13:17.837Z,6.80
2023-11-17T11:15:45.128Z,6.90
2023-11-17T11:18:17.614Z,6.90
2023-11-17T11:20:46.984Z,6.80
2023-11-17T11:23:16.528Z,6.70
2023-11-17T11:25:45.196Z,6.70
2023-11-17T11:28:14.169Z,6.70
2023-11-17T11:30:43.933Z,6.70
2023-11-17T11:33:11.834Z,6.80
2023-11-17T11:35:41.420Z,6.90
2023-11-17T11:38:10.554Z,6.90
2023-11-17T11:40:42.684Z,6.90
2023-11-17T11:43:10.134Z,6.80
2023-11-17T11:45:37.916Z,6.90
2023-11-17T11:48:09.098Z,7.00
2023-11-17T11:50:39.680Z,7.00
2023-11-17T11:53:33.758Z,7.00
2023-11-17T11:56:04.873Z,7.00
2023-11-17T11:58:32.047Z,7.00
2023-11-17T12:00:59.357Z,7.00
2023-11-17T12:03:26.895Z,7.00
2023-11-17T12:05:54.630Z,7.00
2023-11-17T12:08:24.180Z,7.00
2023-11-17T12:10:57.347Z,7.00
2023-11-17T12:13:47.779Z,7.00
2023-11-17T12:16:18.463Z,7.00
2023-11-17T12:18:47.788Z,7.00
2023-11-17T12:21:18.256Z,7.00
2023-11-17T12:23:55.181Z,7.10
2023-11-17T12:26:25.484Z,7.10
2023-11-17T12:28:53.267Z,7.10
2023-11-17T12:31:20.994Z,7.20
2023-11-17T12:33:50.808Z,7.20
2023-11-17T12:36:18.835Z,7.30
2023-11-17T12:38:52.098Z,7.30
2023-11-17T12:41:22.747Z,7.20
2023-11-17T12:43:53.049Z,7.20
2023-11-17T12:46:20.116Z,7.20
2023-11-17T12:48:47.501Z,7.20
2023-11-17T12:51:24.923Z,7.30
2023-11-17T12:53:52.996Z,7.30
2023-11-17T12:56:20.364Z,7.30
2023-11-17T12:58:47.396Z,7.40
2023-11-17T13:01:20.872Z,7.30
2023-11-17T13:03:49.177Z,7.20
2023-11-17T13:06:19.333Z,7.20
2023-11-17T13:08:47.493Z,7.20
2023-11-17T13:11:15.320Z,7.20
2023-11-17T13:13:43.846Z,7.20
2023-11-17T13:16:15.143Z,7.20
2023-11-17T13:18:44.958Z,7.20
2023-11-17T13:21:14.811Z,7.20
2023-11-17T13:23:43.245Z,7.30
2023-11-17T13:26:12.861Z,7.20
2023-11-17T13:28:41.023Z,7.30
2023-11-17T13:31:20.712Z,7.20
2023-11-17T13:33:51.619Z,7.20
2023-11-17T13:36:21.975Z,7.20
2023-11-17T13:38:58.952Z,7.20
2023-11-17T13:41:29.561Z,7.10
2023-11-17T13:43:59.959Z,7.10
2023-11-17T13:46:31.609Z,7.00
2023-11-17T13:49:07.591Z,6.90
2023-11-17T13:51:36.968Z,6.90
2023-11-17T13:54:04.771Z,6.90
2023-11-17T13:56:32.561Z,6.80
2023-11-17T13:58:59.732Z,6.90
2023-11-17T14:01:28.165Z,6.80
2023-11-17T14:03:57.414Z,6.80
2023-11-17T14:06:26.207Z,6.80
2023-11-17T14:08:55.651Z,6.70
2023-11-17T14:11:24.075Z,6.70
2023-11-17T14:13:54.122Z,6.70
2023-11-17T14:16:23.911Z,6.70
2023-11-17T14:18:51.464Z,6.70
2023-11-17T14:21:20.143Z,6.70
2023-11-17T14:23:50.229Z,6.60
2023-11-17T14:26:22.167Z,6.60
2023-11-17T14:28:51.185Z,6.50
2023-11-17T14:31:20.438Z,6.60
2023-11-17T14:33:49.480Z,6.60
2023-11-17T14:36:17.989Z,6.60
2023-11-17T14:38:45.151Z,6.60
2023-11-17T14:41:14.919Z,6.60
2023-11-17T14:43:42.859Z,6.50
2023-11-17T14:46:13.699Z,6.60
2023-11-17T14:48:41.695Z,6.60
2023-11-17T14:51:10.885Z,6.60
2023-11-17T14:53:37.818Z,6.60
2023-11-17T14:56:07.209Z,6.60
2023-11-17T14:58:35.642Z,6.70
2023-11-17T15:01:06.219Z,6.70
2023-11-17T15:03:36.540Z,6.70
2023-11-17T15:06:09.031Z,6.70
2023-11-17T15:08:38.058Z,6.70
2023-11-17T15:11:05.583Z,6.70
2023-11-17T15:13:32.557Z,6.70
2023-11-17T15:16:01.654Z,6.60
2023-11-17T15:18:28.967Z,6.60
2023-11-17T15:20:57.382Z,6.50
2023-11-17T15:23:25.559Z,6.50
2023-11-17T15:25:53.239Z,6.50
2023-11-17T15:28:22.230Z,6.50
2023-11-17T15:30:55.633Z,6.50
2023-11-17T15:33:24.371Z,6.50
2023-11-17T15:35:51.252Z,6.40
2023-11-17T15:38:18.263Z,6.40
2023-11-17T15:40:45.619Z,6.40
2023-11-17T15:43:12.705Z,6.30
2023-11-17T15:45:41.663Z,6.20
2023-11-17T15:48:08.758Z,6.20
2023-11-17T15:50:39.236Z,6.20
2023-11-17T15:53:06.142Z,6.20
2023-11-17T15:55:34.132Z,6.10
2023-11-17T15:58:01.139Z,6.10
2023-11-17T16:00:28.429Z,6.10
2023-11-17T16:02:55.452Z,6.10
2023-11-17T16:05:23.392Z,6.00
2023-11-17T16:07:52.641Z,6.10
2023-11-17T16:10:23.846Z,6.00
2023-11-17T16:12:51.948Z,6.00
2023-11-17T16:15:19.772Z,6.00
2023-11-17T16:17:47.402Z,6.00
2023-11-17T16:20:17.510Z,6.00
2023-11-17T16:22:45.819Z,6.10
2023-11-17T16:25:15.521Z,6.10
2023-11-17T16:27:44.404Z,6.10
2023-11-17T16:30:18.269Z,6.10
2023-11-17T16:32:48.165Z,6.10
2023-11-17T16:35:15.364Z,6.10
2023-11-17T16:37:48.011Z,6.10
2023-11-17T16:40:23.147Z,6.10
2023-11-17T16:43:01.675Z,6.10
2023-11-17T16:45:30.685Z,6.10
2023-11-17T16:47:58.263Z,6.10
2023-11-17T16:50:26.117Z,6.10
2023-11-17T16:52:53.804Z,6.10
2023-11-17T16:55:22.841Z,6.00
2023-11-17T16:57:52.654Z,6.00
2023-11-17T17:00:23.800Z,5.90
2023-11-17T17:02:51.974Z,5.80
2023-11-17T17:05:19.157Z,5.80
2023-11-17T17:07:55.381Z,5.70
2023-11-17T17:10:24.468Z,5.80
2023-11-17T17:12:54.898Z,5.70
2023-11-17T17:15:22.378Z,5.60
2023-11-17T17:17:50.219Z,5.60
2023-11-17T17:20:19.750Z,5.50
2023-11-17T17:22:48.264Z,5.50
2023-11-17T17:25:20.561Z,5.50
2023-11-17T17:27:49.658Z,5.40
2023-11-17T17:30:17.780Z,5.40
2023-11-17T17:32:48.896Z,5.30
2023-11-17T17:35:17.192Z,5.30
2023-11-17T17:37:44.441Z,5.30
2023-11-17T17:40:12.636Z,5.20
2023-11-17T17:42:42.013Z,5.20
2023-11-17T17:45:11.682Z,5.10
2023-11-17T17:47:39.646Z,5.10
2023-11-17T17:50:12.979Z,5.10
2023-11-17T17:52:41.188Z,5.10
2023-11-17T17:55:09.375Z,5.00
2023-11-17T17:57:36.742Z,5.00
2023-11-17T18:00:07.021Z,5.00
2023-11-17T18:02:43.219Z,5.00
2023-11-17T18:05:14.246Z,5.00
2023-11-17T18:07:41.559Z,4.90
2023-11-17T18:10:12.337Z,4.90
2023-11-17T18:12:42.086Z,4.90
2023-11-17T18:15:12.900Z,4.90
2023-11-17T18:17:41.249Z,4.90
2023-11-17T18:20:16.977Z,4.90
2023-11-17T18:22:45.631Z,4.90
2023-11-17T18:25:14.793Z,5.00
2023-11-17T18:27:46.050Z,4.90
2023-11-17T18:30:16.154Z,4.90
2023-11-17T18:32:45.963Z,5.00
2023-11-17T18:35:20.845Z,4.90
2023-11-17T18:37:49.294Z,4.90
2023-11-17T18:40:17.816Z,4.90
2023-11-17T18:42:45.320Z,4.90
2023-11-17T18:45:14.242Z,4.80
2023-11-17T18:47:41.677Z,4.80
2023-11-17T18:50:12.133Z,4.70
2023-11-17T18:52:40.937Z,4.70
2023-11-17T18:55:10.111Z,4.70
2023-11-17T18:57:37.499Z,4.70
2023-11-17T19:00:12.034Z,4.70
2023-11-17T19:02:40.713Z,4.70
2023-11-17T19:05:10.738Z,4.60
2023-11-17T19:07:39.153Z,4.60
2023-11-17T19:10:09.888Z,4.60
2023-11-17T19:12:37.078Z,4.50
2023-11-17T19:15:09.723Z,4.50
2023-11-17T19:17:36.932Z,4.40
2023-11-17T19:20:04.772Z,4.40
2023-11-17T19:22:31.870Z,4.40
2023-11-17T19:25:01.706Z,4.40
2023-11-17T19:27:33.959Z,4.40
2023-11-17T19:30:00.895Z,4.40
2023-11-17T19:32:28.819Z,4.50
2023-11-17T19:34:55.974Z,4.50
2023-11-17T19:37:22.988Z,4.50
2023-11-17T19:39:50.727Z,4.50
2023-11-17T19:42:18.986Z,4.50
2023-11-17T19:44:50.810Z,4.60
2023-11-17T19:47:19.885Z,4.50
2023-11-17T19:49:47.357Z,4.50
2023-11-17T19:52:14.440Z,4.50
2023-11-17T19:54:43.175Z,4.60
2023-11-17T19:57:11.616Z,4.70
2023-11-17T19:59:40.975Z,4.70
2023-11-17T20:02:08.254Z,4.80
2023-11-17T20:04:39.300Z,4.90
2023-11-17T20:07:07.451Z,4.90
2023-11-17T20:09:41.123Z,5.00
2023-11-17T20:12:09.099Z,5.00
2023-11-17T20:14:36.084Z,5.00
2023-11-17T20:17:05.102Z,5.00
2023-11-17T20:19:32.266Z,5.10
2023-11-17T20:22:00.154Z,5.10
2023-11-17T20:24:27.057Z,5.10
2023-11-17T20:26:57.633Z,5.10
2023-11-17T20:29:28.071Z,5.20
2023-11-17T20:31:55.076Z,5.20
2023-11-17T20:34:23.392Z,5.20
2023-11-17T20:36:51.938Z,5.20
2023-11-17T20:39:18.838Z,5.20
2023-11-17T20:41:46.318Z,5.20
2023-11-17T20:44:14.476Z,5.20
2023-11-17T20:46:43.244Z,5.20
2023-11-17T20:49:14.265Z,5.20
2023-11-17T20:51:42.861Z,5.20
2023-11-17T20:54:14.090Z,5.20
2023-11-17T20:56:42.088Z,5.10
2023-11-17T20:59:09.272Z,5.20
2023-11-17T21:01:39.383Z,5.10
2023-11-17T21:04:09.751Z,5.10
2023-11-17T21:06:38.858Z,5.10
2023-11-17T21:09:11.100Z,5.10
2023-11-17T21:11:38.151Z,5.20
2023-11-17T21:14:08.019Z,5.20
2023-11-17T21:16:35.236Z,5.20
2023-11-17T21:19:02.369Z,5.20
2023-11-17T21:21:30.618Z,5.20
2023-11-17T21:23:58.187Z,5.20
2023-11-17T21:26:27.510Z,5.10
2023-11-17T21:28:55.815Z,5.10
2023-11-17T21:31:23.960Z,5.10
2023-11-17T21:33:50.985Z,5.20
2023-11-17T21:36:20.740Z,5.20
2023-11-17T21:38:48.613Z,5.20
2023-11-17T21:41:15.632Z,5.10
2023-11-17T21:43:43.926Z,5.10
2023-11-17T21:46:10.924Z,5.10
2023-11-17T21:48:39.078Z,5.10
2023-11-17T21:51:11.369Z,5.10
2023-11-17T21:53:38.292Z,5.10
2023-11-17T21:56:07.916Z,5.10
2023-11-17T21:58:35.316Z,5.20
2023-11-17T22:01:06.055Z,5.20
2023-11-17T22:03:33.721Z,5.20
2023-11-17T22:06:00.767Z,5.10
2023-11-17T22:08:27.748Z,5.10
2023-11-17T22:10:54.721Z,5.10
2023-11-17T22:13:22.408Z,5.10
2023-11-17T22:15:49.392Z,5.10
2023-11-17T22:18:17.729Z,5.10
2023-11-17T22:20:44.641Z,5.10
2023-11-17T22:23:12.238Z,5.10
2023-11-17T22:25:39.202Z,5.20
2023-11-17T22:28:06.431Z,5.20
2023-11-17T22:30:33.349Z,5.20
2023-11-17T22:33:00.368Z,5.20
2023-11-17T22:35:28.914Z,5.10
2023-11-17T22:37:56.606Z,5.10
2023-11-17T22:40:24.306Z,5.10
2023-11-17T22:42:52.988Z,5.10
2023-11-17T22:45:21.031Z,5.10
2023-11-17T22:47:50.967Z,5.20
2023-11-17T22:50:19.228Z,5.20
2023-11-17T22:52:50.356Z,5.20
2023-11-17T22:55:18.015Z,5.20
2023-11-17T22:57:44.895Z,5.20
2023-11-17T23:00:31.417Z,5.20
2023-11-17T23:02:58.646Z,5.20
2023-11-17T23:05:26.533Z,5.20
2023-11-17T23:07:54.796Z,5.20
2023-11-17T23:10:22.318Z,5.20
2023-11-17T23:12:49.193Z,5.30
2023-11-17T23:15:16.093Z,5.20
2023-11-17T23:17:43.063Z,5.30
2023-11-17T23:20:12.488Z,5.30
2023-11-17T23:22:40.915Z,5.20
2023-11-17T23:25:13.687Z,5.20
2023-11-17T23:27:41.140Z,5.20
2023-11-17T23:30:10.082Z,5.20
2023-11-17T23:32:38.447Z,5.20
2023-11-17T23:35:06.102Z,5.10
2023-11-17T23:37:33.149Z,5.10
2023-11-17T23:40:00.172Z,5.10
2023-11-17T23:42:29.663Z,5.10
2023-11-17T23:44:56.595Z,5.00
2023-11-17T23:47:23.725Z,5.10
2023-11-17T23:49:50.665Z,5.10
2023-11-17T23:52:18.158Z,5.00
2023-11-17T23:54:45.794Z,5.10
2023-11-17T23:57:13.498Z,5.10
2023-11-17T23:59:41.915Z,5.10
